マリンドエア(コタキナバル行きチャーター便)

9M-LNL

Malindo Air/Boeing737-900ER(9M-LNL) OD8006 Kota Kinabalu(BKI)-Niigata(KIJ)

新年となりました。今年も宜しくお願い致します。

年末はチャーター便を見学へ新潟空港に。マレーシアの”マリンドエア”というらしいです。

新潟発のコタキナバル行き、年末年始のツアー用ですね。

ボルネオ島を巡る日程だそうです。マリオットに泊まったりして、いいですね。

マリンドエアチャーター便で行く!ボルネオ島(H.I.S)

マリンドエアは2012年設立の新しい航空会社。

LCCのライオンエアのグループ会社みたいだけど、マリンドエア自体はフルサービスキャリアとのこと。

エコノミーでも全席個人モニターが付き、手荷物の預け入れも15kgまでは無料だとか。

マリンドエア737⁻800ビジネスクラス搭乗記【香港ークアラルンプール】

 

とはいえ、単通路機の737でマレーシアはなかなか辛いだろうな…。

(コタキナバルは成田からのMH直行便で6.5時間。)

9M-LNL

Malindo Air/Boeing737-900ER(9M-LNL) OD8007 Niigata(KIJ)-Kota Kinabalu(BKI)

南国マレーシアに向けて、新潟の冬に上がっていきました。当時のMETAR↓

RJSN 300600Z 31022G34KT 9999 -SHSN FEW010 SCT020 BKN030 03/M04 Q1024

→平均風速22kt(約11.3m/s)、瞬間風速34kt(約17.5m/s)の暴風…。体感温度は…マイナス10℃くらいか…?

ちなみに年末年始のチャーター便はこれだけ。寂しいもんですねー。

0PEOPLE